Time;durP1;ratioP1;P1;durP2;ratioP2;P2;SDS_P1;SDS_P2;PMS_P1;PMS_P2;Temp;Humidity;BMP_temperature;BMP_pressure;BME280_temperature;BME280_humidity;BME280_pressure;Samples;Min_cycle;Max_cycle;Signal;HPM_P1;HPM_P2
2022/05/19 00:00:22;;;;;;;5.45;3.40;;;22.20;92.90;;;;;;5056281;28;20021;-63
2022/05/19 00:02:48;;;;;;;6.85;3.65;;;22.20;93.00;;;;;;5055445;28;20079;-64
2022/05/19 00:05:13;;;;;;;8.68;3.50;;;22.20;93.20;;;;;;5074091;28;20028;-63
2022/05/19 00:07:39;;;;;;;7.60;3.28;;;22.10;93.40;;;;;;5039046;28;20040;-63
2022/05/19 00:10:05;;;;;;;7.60;3.80;;;22.10;93.60;;;;;;5074248;28;20020;-63
2022/05/19 00:12:31;;;;;;;4.72;2.85;;;22.10;93.70;;;;;;5073471;28;20429;-63
2022/05/19 00:15:00;;;;;;;3.55;3.20;;;22.00;93.90;;;;;;5073140;28;20035;-65
2022/05/19 00:17:25;;;;;;;5.45;3.42;;;21.90;93.90;;;;;;5073432;28;20024;-63
2022/05/19 00:19:51;;;;;;;5.75;3.08;;;21.90;94.00;;;;;;5072820;28;20077;-62
2022/05/19 00:22:18;;;;;;;9.45;3.75;;;21.90;94.00;;;;;;5055090;28;20024;-63
2022/05/19 00:24:44;;;;;;;6.53;3.45;;;21.80;94.20;;;;;;5072865;28;20052;-64
2022/05/19 00:27:09;;;;;;;3.25;2.95;;;21.80;94.40;;;;;;5055730;28;20047;-63
2022/05/19 00:29:36;;;;;;;6.68;3.28;;;21.80;94.50;;;;;;5073628;28;20024;-81
2022/05/19 00:32:02;;;;;;;6.85;3.20;;;21.80;94.40;;;;;;5073584;28;20029;-64
2022/05/19 00:34:28;;;;;;;7.38;3.70;;;21.80;94.60;;;;;;5055446;28;20016;-63
2022/05/19 00:37:01;;;;;;;5.13;3.65;;;21.70;94.70;;;;;;5054618;28;20120;-63
2022/05/19 00:39:28;;;;;;;4.28;3.15;;;21.70;94.80;;;;;;5073911;28;20017;-64
2022/05/19 00:44:39;;;;;;;6.45;3.67;;;21.60;94.80;;;;;;5073103;28;20424;-64
2022/05/19 00:47:07;;;;;;;6.25;3.60;;;21.60;95.00;;;;;;5073307;28;20169;-63
2022/05/19 00:49:40;;;;;;;6.30;3.60;;;21.60;95.00;;;;;;5073002;28;20450;-62
2022/05/19 00:52:29;;;;;;;5.30;3.45;;;21.60;95.10;;;;;;5072593;28;20493;-63
2022/05/19 00:55:05;;;;;;;4.80;3.35;;;21.60;95.10;;;;;;5071958;28;20107;-64
2022/05/19 00:57:35;;;;;;;6.30;3.78;;;21.50;95.40;;;;;;5054163;28;20059;-63
2022/05/19 01:00:09;;;;;;;5.88;3.28;;;21.40;95.40;;;;;;5072274;28;20467;-63
2022/05/19 01:02:41;;;;;;;4.72;3.20;;;21.40;95.50;;;;;;5072851;28;20115;-63
2022/05/19 01:05:14;;;;;;;5.50;3.67;;;21.50;95.60;;;;;;5073024;28;20028;-63
2022/05/19 01:07:47;;;;;;;4.07;3.25;;;21.40;95.50;;;;;;5054757;28;20514;-62
2022/05/19 01:10:14;;;;;;;4.63;3.25;;;21.40;95.50;;;;;;5072891;28;20134;-62
2022/05/19 01:12:41;;;;;;;3.50;3.13;;;21.40;95.70;;;;;;5053553;28;20024;-63
2022/05/19 01:15:07;;;;;;;4.55;3.10;;;21.40;95.70;;;;;;5072635;28;20017;-63
2022/05/19 01:17:34;;;;;;;4.75;3.40;;;21.30;95.80;;;;;;5054751;28;20055;-63
2022/05/19 01:20:04;;;;;;;5.55;3.42;;;21.40;95.90;;;;;;5071543;28;20101;-64
2022/05/19 01:22:49;;;;;;;6.05;3.30;;;21.40;95.50;;;;;;5072628;28;20021;-63
2022/05/19 01:26:19;;;;;;;6.10;3.35;;;21.40;95.60;;;;;;5054751;28;20529;-63
2022/05/19 01:28:46;;;;;;;3.15;2.80;;;21.40;95.70;;;;;;4974362;28;20507;-63
2022/05/19 01:31:29;;;;;;;6.93;3.45;;;21.40;95.60;;;;;;4991091;28;20092;-63
2022/05/19 01:33:55;;;;;;;4.35;3.10;;;21.30;95.70;;;;;;5052170;28;20373;-63
2022/05/19 01:36:20;;;;;;;5.68;3.25;;;21.30;95.70;;;;;;5054028;28;20024;-64
2022/05/19 01:38:50;;;;;;;3.83;3.05;;;21.30;95.60;;;;;;5072365;28;20018;-64
2022/05/19 01:41:30;;;;;;;3.47;3.10;;;21.30;95.70;;;;;;5072065;28;20028;-62
2022/05/19 01:44:12;;;;;;;6.38;3.00;;;21.30;95.70;;;;;;5054103;28;20123;-64
2022/05/19 01:46:40;;;;;;;4.78;3.17;;;21.30;95.70;;;;;;5072144;28;20029;-63
2022/05/19 01:49:09;;;;;;;6.55;3.20;;;21.30;95.70;;;;;;5072090;28;20021;-63
2022/05/19 01:51:55;;;;;;;3.67;2.88;;;21.30;95.80;;;;;;5053841;28;20021;-62
2022/05/19 01:54:38;;;;;;;5.38;3.10;;;21.20;95.80;;;;;;5072406;28;20509;-63
2022/05/19 01:57:33;;;;;;;2.83;2.63;;;21.20;96.00;;;;;;5071496;28;20369;-62
2022/05/19 02:00:04;;;;;;;2.75;2.50;;;21.20;96.00;;;;;;5033592;28;20374;-64
2022/05/19 02:03:05;;;;;;;4.63;3.25;;;21.10;95.90;;;;;;5072167;28;20456;-64
2022/05/19 02:05:43;;;;;;;3.20;2.88;;;21.10;96.10;;;;;;5071814;28;20064;-63
2022/05/19 02:08:17;;;;;;;3.78;2.80;;;21.10;96.10;;;;;;5071263;28;20025;-63
2022/05/19 02:10:47;;;;;;;4.38;2.85;;;21.10;96.20;;;;;;5071072;28;20104;-67
2022/05/19 02:13:13;;;;;;;4.35;2.75;;;21.10;96.20;;;;;;5071655;28;20051;-63
2022/05/19 02:15:42;;;;;;;2.97;2.63;;;21.10;96.10;;;;;;5071218;28;20032;-63
2022/05/19 02:18:08;;;;;;;4.80;3.05;;;21.00;96.00;;;;;;5053477;28;20335;-65
2022/05/19 02:20:36;;;;;;;5.78;2.85;;;21.00;96.10;;;;;;5071687;28;20472;-63
2022/05/19 02:23:02;;;;;;;5.95;2.88;;;21.00;96.00;;;;;;5070449;28;20485;-65
2022/05/19 02:25:36;;;;;;;2.90;2.30;;;21.10;96.00;;;;;;5071606;28;20078;-63
2022/05/19 02:28:14;;;;;;;5.18;2.92;;;21.00;95.80;;;;;;5052297;28;20036;-62
2022/05/19 02:30:41;;;;;;;3.25;2.55;;;21.00;95.70;;;;;;5071265;28;20078;-63
2022/05/19 02:33:08;;;;;;;3.65;2.83;;;21.00;95.80;;;;;;5070643;28;20016;-63
2022/05/19 02:35:34;;;;;;;6.63;2.65;;;20.90;95.80;;;;;;5070938;28;20024;-64
2022/05/19 02:38:00;;;;;;;4.10;2.88;;;20.90;95.70;;;;;;5070579;28;20205;-63
2022/05/19 02:40:30;;;;;;;4.25;2.47;;;21.00;95.30;;;;;;5070993;28;20020;-63
2022/05/19 02:42:56;;;;;;;3.13;2.83;;;20.80;95.20;;;;;;5070021;28;20079;-63
2022/05/19 02:45:23;;;;;;;3.83;2.78;;;20.80;95.10;;;;;;5070967;28;20024;-64
2022/05/19 02:47:50;;;;;;;7.72;2.88;;;20.50;94.70;;;;;;5052614;28;20457;-65
2022/05/19 02:50:17;;;;;;;4.30;3.10;;;20.50;94.70;;;;;;5070919;28;20024;-63
2022/05/19 02:52:42;;;;;;;5.40;2.55;;;20.60;94.90;;;;;;5052827;28;20036;-63
2022/05/19 02:55:09;;;;;;;5.95;2.97;;;20.60;94.90;;;;;;5070327;28;20013;-63
2022/05/19 02:57:35;;;;;;;2.67;2.25;;;20.60;94.90;;;;;;5070646;28;20094;-62
2022/05/19 03:00:01;;;;;;;4.30;2.42;;;20.60;94.50;;;;;;5070138;28;20099;-62
2022/05/19 03:02:26;;;;;;;5.40;3.10;;;20.60;94.40;;;;;;5070998;28;20054;-63
2022/05/19 03:04:52;;;;;;;3.95;2.67;;;20.50;94.30;;;;;;5070411;28;20059;-63
2022/05/19 03:07:18;;;;;;;2.35;2.15;;;20.60;93.90;;;;;;5071192;28;20028;-62
2022/05/19 03:09:46;;;;;;;4.32;2.45;;;20.60;93.90;;;;;;5052434;28;20082;-63
2022/05/19 03:12:13;;;;;;;5.07;2.20;;;20.60;94.10;;;;;;5052470;28;20044;-63
2022/05/19 03:14:39;;;;;;;2.80;2.22;;;20.60;94.10;;;;;;5052797;28;20338;-63
2022/05/19 03:17:07;;;;;;;4.35;2.50;;;20.60;94.10;;;;;;5070077;28;20533;-63
2022/05/19 03:19:33;;;;;;;3.40;2.47;;;20.50;93.90;;;;;;5035862;28;20119;-64
2022/05/19 03:21:58;;;;;;;4.43;2.42;;;20.50;93.90;;;;;;5052164;28;20020;-64
2022/05/19 03:24:24;;;;;;;5.40;2.65;;;20.40;93.60;;;;;;5070548;28;20017;-63
2022/05/19 03:26:49;;;;;;;4.30;2.60;;;20.30;93.70;;;;;;5070255;28;20032;-64
2022/05/19 03:29:15;;;;;;;2.80;2.60;;;20.30;93.80;;;;;;5070948;28;20091;-63
2022/05/19 03:31:41;;;;;;;7.13;3.10;;;20.30;93.60;;;;;;5071007;28;20103;-63
2022/05/19 03:34:07;;;;;;;9.90;2.58;;;20.30;93.60;;;;;;5069700;28;20043;-63
2022/05/19 03:36:32;;;;;;;5.18;2.85;;;20.40;93.30;;;;;;5035225;28;20079;-63
2022/05/19 03:38:59;;;;;;;3.85;2.53;;;20.30;93.10;;;;;;5070003;28;20020;-63
2022/05/19 03:41:25;;;;;;;3.28;2.55;;;20.20;93.20;;;;;;5051876;28;20028;-64
2022/05/19 03:43:51;;;;;;;3.53;2.17;;;20.20;93.00;;;;;;5051914;28;20032;-65
2022/05/19 03:46:17;;;;;;;4.72;2.40;;;20.10;93.20;;;;;;5070230;28;20024;-64
2022/05/19 03:48:42;;;;;;;4.10;2.47;;;20.10;93.30;;;;;;5070716;28;20020;-63
2022/05/19 03:51:23;;;;;;;4.10;2.45;;;20.10;93.20;;;;;;5070358;28;20024;-62
2022/05/19 03:53:53;;;;;;;7.25;2.58;;;20.10;93.10;;;;;;5070081;28;20078;-63
2022/05/19 03:56:21;;;;;;;6.80;2.15;;;20.20;93.20;;;;;;5052428;28;20036;-62
2022/05/19 03:58:48;;;;;;;5.30;2.50;;;20.20;92.80;;;;;;5070205;28;20034;-63
2022/05/19 04:01:15;;;;;;;4.22;2.13;;;20.10;92.90;;;;;;5070949;28;20029;-62
2022/05/19 04:03:41;;;;;;;3.40;2.70;;;20.10;92.70;;;;;;5070731;28;20031;-64
2022/05/19 04:06:07;;;;;;;5.03;3.05;;;20.00;93.00;;;;;;5051833;28;20131;-63
2022/05/19 04:08:33;;;;;;;4.65;2.10;;;20.00;93.10;;;;;;5070496;28;20033;-63
2022/05/19 04:10:58;;;;;;;3.90;2.22;;;20.10;93.00;;;;;;5069664;28;20028;-63
2022/05/19 04:13:24;;;;;;;7.43;2.30;;;20.20;93.00;;;;;;5070043;28;20347;-63
2022/05/19 04:15:50;;;;;;;4.05;2.63;;;20.20;92.90;;;;;;5069650;28;20393;-67
2022/05/19 04:18:15;;;;;;;6.55;2.75;;;20.30;92.90;;;;;;5069938;28;20096;-63
2022/05/19 04:20:43;;;;;;;4.57;2.08;;;20.30;92.80;;;;;;5070211;28;20025;-63
2022/05/19 04:23:09;;;;;;;3.40;2.38;;;20.40;92.60;;;;;;5051792;28;20028;-64
2022/05/19 04:25:36;;;;;;;4.82;2.28;;;20.30;92.20;;;;;;5052379;28;20178;-64
2022/05/19 04:28:02;;;;;;;3.95;2.50;;;20.40;92.60;;;;;;5069509;28;20100;-64
2022/05/19 04:30:28;;;;;;;4.75;2.15;;;20.50;92.80;;;;;;5052167;28;20033;-63
2022/05/19 04:32:54;;;;;;;4.82;2.03;;;20.50;92.90;;;;;;5073273;28;20467;-63
2022/05/19 04:35:21;;;;;;;5.03;2.25;;;20.50;92.90;;;;;;5073310;28;20023;-62
2022/05/19 04:37:47;;;;;;;5.07;2.30;;;20.50;93.10;;;;;;5073353;28;20051;-63
2022/05/19 04:40:14;;;;;;;5.97;2.15;;;20.50;92.70;;;;;;5055472;28;20052;-64
2022/05/19 04:42:41;;;;;;;4.25;2.20;;;20.60;92.90;;;;;;5073703;28;20499;-62
2022/05/19 04:45:11;;;;;;;2.05;1.83;;;20.70;92.60;;;;;;5072766;28;20086;-63
2022/05/19 04:47:37;;;;;;;3.20;1.90;;;20.70;92.40;;;;;;5073047;28;20070;-62
2022/05/19 04:50:04;;;;;;;2.35;1.75;;;20.80;91.70;;;;;;5071835;28;20263;-62
2022/05/19 04:52:29;;;;;;;3.05;2.58;;;21.20;94.50;;;;;;5054815;28;20021;-65
2022/05/19 04:54:55;;;;;;;5.30;1.67;;;21.90;97.60;;;;;;5055622;28;20067;-64
2022/05/19 04:57:21;;;;;;;2.13;1.15;;;22.30;96.70;;;;;;5052884;28;20350;-66
2022/05/19 04:59:46;;;;;;;1.88;1.70;;;22.50;96.50;;;;;;5034865;28;20342;-64
2022/05/19 05:02:12;;;;;;;3.75;1.73;;;22.70;93.00;;;;;;5034313;28;20021;-65
2022/05/19 05:04:38;;;;;;;3.97;1.70;;;22.80;93.40;;;;;;5052861;28;20024;-65
2022/05/19 05:07:05;;;;;;;1.80;1.30;;;22.70;90.70;;;;;;5034035;28;20151;-66
2022/05/19 05:09:31;;;;;;;4.75;1.75;;;22.50;91.30;;;;;;5034525;28;20473;-65
2022/05/19 05:11:57;;;;;;;4.05;2.13;;;22.70;90.90;;;;;;5033491;28;20033;-65
2022/05/19 05:14:22;;;;;;;5.32;1.70;;;22.80;90.00;;;;;;5034830;28;20029;-66
2022/05/19 05:16:50;;;;;;;5.22;1.55;;;22.90;91.30;;;;;;5052758;28;20110;-65
2022/05/19 05:19:21;;;;;;;3.67;1.98;;;23.00;90.60;;;;;;5053965;28;20028;-68
2022/05/19 05:21:47;;;;;;;;;;;23.10;90.00;;;;;;5066789;28;20080;-65
2022/05/19 05:24:12;;;;;;;2.90;1.55;;;23.00;90.10;;;;;;5048583;28;20166;-67
2022/05/19 05:26:38;;;;;;;8.15;1.88;;;22.80;85.90;;;;;;5035038;28;20411;-66
2022/05/19 05:29:04;;;;;;;8.45;1.70;;;22.70;90.40;;;;;;5063539;28;20361;-67
2022/05/19 05:31:29;;;;;;;2.47;1.75;;;22.90;87.60;;;;;;5068361;28;20308;-69
2022/05/19 05:33:55;;;;;;;7.15;2.10;;;22.70;89.70;;;;;;5047082;28;20213;-65
2022/05/19 05:36:21;;;;;;;3.30;1.63;;;22.50;86.90;;;;;;5036641;28;20035;-66
2022/05/19 05:38:47;;;;;;;4.25;2.00;;;22.70;87.50;;;;;;5052409;28;20025;-65
2022/05/19 05:41:13;;;;;;;6.10;2.30;;;22.20;89.20;;;;;;5051247;28;20036;-62
2022/05/19 05:43:40;;;;;;;6.03;2.08;;;22.30;88.20;;;;;;5051795;28;20470;-63
2022/05/19 05:46:14;;;;;;;3.08;2.13;;;21.80;86.70;;;;;;5043972;28;20039;-64
2022/05/19 05:48:40;;;;;;;4.03;1.73;;;21.40;87.90;;;;;;5053412;28;20032;-65
2022/05/19 05:51:07;;;;;;;6.40;2.55;;;21.30;88.60;;;;;;5043012;28;20074;-63
2022/05/19 05:53:34;;;;;;;6.82;2.58;;;21.10;88.30;;;;;;5052693;28;20013;-63
2022/05/19 05:56:00;;;;;;;7.03;2.22;;;21.10;88.30;;;;;;5042840;28;20081;-64
2022/05/19 05:58:26;;;;;;;3.00;2.25;;;21.00;89.00;;;;;;5040985;28;20426;-64
2022/05/19 06:00:52;;;;;;;2.20;1.58;;;20.90;89.20;;;;;;5063894;28;20021;-64
2022/05/19 06:03:18;;;;;;;6.55;2.10;;;21.00;89.30;;;;;;5045761;28;20024;-64
2022/05/19 06:05:44;;;;;;;10.90;2.60;;;21.00;89.20;;;;;;5053250;28;20021;-64
2022/05/19 06:08:09;;;;;;;19.17;3.17;;;21.00;89.30;;;;;;5069563;28;20084;-65
2022/05/19 06:10:35;;;;;;;4.75;2.03;;;21.10;89.40;;;;;;5071357;28;20035;-63
2022/05/19 06:13:01;;;;;;;8.02;2.22;;;21.00;89.60;;;;;;5062634;28;20078;-63
2022/05/19 06:15:27;;;;;;;7.78;2.08;;;21.00;90.10;;;;;;5070326;28;20487;-64
2022/05/19 06:17:53;;;;;;;14.50;2.65;;;21.10;89.70;;;;;;5070832;28;20058;-64
2022/05/19 06:20:19;;;;;;;5.60;1.92;;;21.10;90.10;;;;;;5065990;28;20017;-68
2022/05/19 06:22:46;;;;;;;9.68;3.25;;;21.10;89.90;;;;;;5043870;28;20396;-64
2022/05/19 06:25:16;;;;;;;5.82;2.10;;;21.10;89.50;;;;;;5066334;28;20028;-64
2022/05/19 06:27:42;;;;;;;7.97;2.35;;;21.10;89.70;;;;;;5064791;28;20493;-64
2022/05/19 06:30:08;;;;;;;12.18;2.45;;;21.00;89.80;;;;;;5069924;28;20024;-63
2022/05/19 06:32:36;;;;;;;8.05;2.40;;;21.00;89.80;;;;;;5055379;28;20029;-62
2022/05/19 06:35:02;;;;;;;5.07;2.03;;;21.00;89.40;;;;;;5062984;28;20119;-64
2022/05/19 06:37:28;;;;;;;9.55;2.35;;;21.20;89.70;;;;;;5070482;28;20032;-67
2022/05/19 06:39:53;;;;;;;7.03;2.80;;;21.80;93.80;;;;;;5052420;28;20031;-66
2022/05/19 06:42:19;;;;;;;6.20;2.38;;;22.10;90.70;;;;;;5069585;28;20056;-65
2022/05/19 06:44:45;;;;;;;8.55;2.20;;;22.50;91.70;;;;;;5070606;28;20358;-65
2022/05/19 06:47:15;;;;;;;7.30;1.88;;;22.60;91.20;;;;;;5070146;28;20032;-63
2022/05/19 06:49:50;;;;;;;6.38;2.05;;;22.70;91.20;;;;;;5070805;28;20029;-62
2022/05/19 06:52:24;;;;;;;5.05;1.60;;;23.10;91.50;;;;;;5051570;28;20385;-62
2022/05/19 06:54:53;;;;;;;9.85;1.75;;;23.30;90.60;;;;;;5051731;28;20055;-64
2022/05/19 06:57:20;;;;;;;4.97;1.58;;;23.50;87.20;;;;;;5069884;28;20036;-63
2022/05/19 06:59:46;;;;;;;3.42;1.13;;;23.50;88.30;;;;;;5070659;28;20036;-63
2022/05/19 07:02:12;;;;;;;6.07;1.75;;;23.50;87.50;;;;;;5051745;28;20132;-64
2022/05/19 07:04:39;;;;;;;3.92;1.60;;;23.60;86.00;;;;;;5052708;28;20406;-67
2022/05/19 07:07:05;;;;;;;13.02;2.67;;;23.50;85.40;;;;;;5051642;28;20121;-64
2022/05/19 07:09:31;;;;;;;9.18;2.00;;;23.10;85.20;;;;;;5051987;28;20060;-66
2022/05/19 07:11:57;;;;;;;7.63;1.48;;;22.90;83.10;;;;;;5034495;28;20041;-66
2022/05/19 07:14:23;;;;;;;13.55;2.40;;;22.90;85.30;;;;;;5061449;28;20032;-65
2022/05/19 07:16:49;;;;;;;5.38;1.73;;;23.00;83.50;;;;;;5037727;28;20489;-67
2022/05/19 07:22:04;;;;;;;6.13;2.53;;;23.00;86.50;;;;;;5060046;28;20062;-74
2022/05/19 07:24:31;;;;;;;7.55;1.73;;;23.30;85.70;;;;;;5052669;28;20488;-66
2022/05/19 07:26:58;;;;;;;8.13;1.85;;;23.40;83.60;;;;;;5070711;28;20377;-66
2022/05/19 07:29:25;;;;;;;4.28;1.50;;;23.20;82.90;;;;;;5069846;28;20104;-66
2022/05/19 07:31:52;;;;;;;8.40;2.13;;;23.30;83.60;;;;;;5058758;28;20085;-64
2022/05/19 07:34:20;;;;;;;5.70;2.15;;;23.00;81.60;;;;;;5054995;28;20101;-64
2022/05/19 07:36:47;;;;;;;2.97;1.58;;;22.80;81.60;;;;;;5053259;28;20150;-64
2022/05/19 07:39:13;;;;;;;6.07;1.15;;;22.50;81.90;;;;;;5062424;28;20025;-65
2022/05/19 07:41:40;;;;;;;9.43;1.40;;;22.50;82.40;;;;;;5031673;28;20095;-64
2022/05/19 07:44:07;;;;;;;3.83;1.63;;;22.60;81.70;;;;;;5035837;28;20127;-63
2022/05/19 07:46:33;;;;;;;3.33;1.55;;;22.50;82.30;;;;;;5051869;28;20393;-63
2022/05/19 07:48:59;;;;;;;5.53;1.70;;;22.60;82.80;;;;;;5049494;28;20032;-65
2022/05/19 07:51:39;;;;;;;7.57;1.70;;;22.80;83.00;;;;;;5064099;28;20031;-66
2022/05/19 07:54:09;;;;;;;13.05;2.60;;;23.00;82.00;;;;;;5067895;28;20029;-63
2022/05/19 07:56:35;;;;;;;2.17;1.33;;;23.40;81.70;;;;;;5070018;28;20040;-63
2022/05/19 07:59:02;;;;;;;5.03;1.50;;;23.40;81.30;;;;;;5068384;28;20029;-64
2022/05/19 08:01:29;;;;;;;5.10;1.85;;;23.60;80.80;;;;;;5070019;28;20024;-64
2022/05/19 08:03:56;;;;;;;2.97;1.33;;;23.30;82.40;;;;;;5069951;28;20071;-64
2022/05/19 08:06:21;;;;;;;8.07;1.40;;;23.90;81.40;;;;;;5072444;28;20024;-63
2022/05/19 08:08:48;;;;;;;4.18;1.60;;;24.20;81.10;;;;;;5074211;28;20031;-65
2022/05/19 08:11:14;;;;;;;10.40;1.88;;;24.30;80.10;;;;;;5073159;28;20032;-64
2022/05/19 08:16:24;;;;;;;1.77;1.23;;;24.20;79.60;;;;;;5071885;28;20071;-64
2022/05/19 08:18:50;;;;;;;4.53;1.75;;;23.80;80.20;;;;;;5072945;28;20461;-63
2022/05/19 08:21:17;;;;;;;4.55;1.83;;;23.70;80.20;;;;;;5071397;28;20025;-65
2022/05/19 08:23:50;;;;;;;5.20;1.27;;;24.00;80.20;;;;;;5073127;28;20107;-65
2022/05/19 08:26:17;;;;;;;4.65;1.83;;;24.00;79.90;;;;;;5072475;28;20481;-64
2022/05/19 08:28:44;;;;;;;4.57;1.55;;;24.50;80.00;;;;;;5073345;28;20437;-64
2022/05/19 08:31:16;;;;;;;5.78;1.80;;;24.80;78.60;;;;;;5072841;28;20075;-64
2022/05/19 08:33:43;;;;;;;6.93;2.33;;;25.30;78.20;;;;;;5073140;28;20044;-64
2022/05/19 08:36:10;;;;;;;2.78;1.45;;;25.50;79.30;;;;;;5072366;28;20410;-64
2022/05/19 08:38:37;;;;;;;4.25;1.52;;;25.50;78.10;;;;;;5072169;28;20486;-64
2022/05/19 08:41:38;;;;;;;4.78;2.15;;;25.60;78.20;;;;;;5073126;28;20044;-65
2022/05/19 08:44:03;;;;;;;;;;;25.70;76.70;;;;;;5074315;28;20044;-64
2022/05/19 08:46:45;;;;;;;2.17;1.08;;;26.00;77.00;;;;;;5072544;28;19965;-64
2022/05/19 08:49:35;;;;;;;3.53;1.55;;;25.60;77.20;;;;;;5072609;28;20398;-66
2022/05/19 08:52:05;;;;;;;1.73;1.35;;;25.50;77.70;;;;;;5073343;28;20025;-64
2022/05/19 08:54:33;;;;;;;6.90;1.00;;;25.90;77.50;;;;;;5073106;28;20035;-64
2022/05/19 08:57:07;;;;;;;1.95;1.00;;;26.10;76.50;;;;;;5071470;28;20043;-64
2022/05/19 09:00:01;;;;;;;2.85;1.15;;;26.20;77.40;;;;;;5072980;28;20034;-64
2022/05/19 09:02:55;;;;;;;2.97;1.27;;;27.20;77.60;;;;;;5029900;28;20060;-67
2022/05/19 09:05:46;;;;;;;2.55;1.10;;;26.90;76.50;;;;;;5036153;28;20044;-64
2022/05/19 09:09:00;;;;;;;2.13;1.07;;;26.60;75.20;;;;;;5071374;28;20366;-64
2022/05/19 09:11:44;;;;;;;3.45;1.30;;;26.80;76.00;;;;;;4991082;28;20556;-65
2022/05/19 09:14:26;;;;;;;2.10;1.08;;;27.30;75.50;;;;;;4990367;28;20443;-64
2022/05/19 09:16:58;;;;;;;1.60;1.08;;;26.80;73.70;;;;;;5047698;28;20045;-65
2022/05/19 09:19:51;;;;;;;1.90;1.10;;;26.90;73.70;;;;;;5070968;28;20458;-63
2022/05/19 09:22:22;;;;;;;5.07;1.13;;;26.90;73.90;;;;;;5071284;28;20024;-64
2022/05/19 09:24:50;;;;;;;3.35;1.35;;;27.30;73.80;;;;;;5071807;28;20027;-65
2022/05/19 09:27:19;;;;;;;4.25;1.23;;;27.10;74.60;;;;;;5071440;28;20115;-64
2022/05/19 09:29:51;;;;;;;3.30;1.27;;;27.20;74.40;;;;;;5070797;28;20362;-63
2022/05/19 09:32:22;;;;;;;1.77;0.80;;;27.10;75.40;;;;;;5072068;28;20081;-63
2022/05/19 09:34:53;;;;;;;3.15;1.20;;;27.40;75.10;;;;;;5072421;28;20024;-65
2022/05/19 09:37:36;;;;;;;2.17;0.90;;;27.40;75.20;;;;;;5070130;28;20047;-65
2022/05/19 09:40:11;;;;;;;3.72;1.55;;;27.70;75.40;;;;;;5070652;28;20391;-64
2022/05/19 09:43:03;;;;;;;3.40;1.15;;;27.90;74.50;;;;;;5070111;28;20109;-64
2022/05/19 09:45:35;;;;;;;3.28;1.40;;;28.00;74.40;;;;;;5071691;28;20103;-65
2022/05/19 09:48:05;;;;;;;10.00;1.52;;;27.80;74.20;;;;;;5071999;28;20430;-64
2022/05/19 09:50:47;;;;;;;4.85;1.55;;;27.70;74.40;;;;;;5071813;28;20112;-64
2022/05/19 09:53:37;;;;;;;1.23;0.80;;;27.10;76.30;;;;;;5071168;28;20498;-64
2022/05/19 09:56:08;;;;;;;5.55;1.60;;;26.70;77.30;;;;;;5072018;28;20036;-63
2022/05/19 09:58:38;;;;;;;5.15;1.30;;;27.10;77.00;;;;;;5070113;28;20032;-64
2022/05/19 10:01:18;;;;;;;4.18;1.40;;;27.20;76.70;;;;;;5071741;28;20024;-64
2022/05/19 10:04:12;;;;;;;2.55;1.42;;;27.40;76.00;;;;;;5070177;28;20044;-68
2022/05/19 10:06:56;;;;;;;3.83;1.20;;;27.70;76.20;;;;;;5061512;28;20117;-65
2022/05/19 10:09:29;;;;;;;4.30;1.25;;;27.70;77.60;;;;;;5069588;28;20029;-64
2022/05/19 10:12:12;;;;;;;6.97;1.60;;;28.00;76.20;;;;;;5071477;28;20024;-64
2022/05/19 10:14:40;;;;;;;4.22;1.20;;;27.40;76.60;;;;;;5070328;28;20031;-64
2022/05/19 10:17:22;;;;;;;5.75;1.33;;;27.30;77.20;;;;;;5071955;28;20036;-64
2022/05/19 10:19:56;;;;;;;6.30;1.70;;;27.30;77.30;;;;;;5071529;28;20035;-65
2022/05/19 10:22:40;;;;;;;3.25;1.13;;;27.50;76.80;;;;;;5070698;28;20028;-63
2022/05/19 10:25:18;;;;;;;6.88;1.95;;;27.40;77.30;;;;;;5070149;28;20052;-64
2022/05/19 10:31:24;;;;;;;7.37;1.80;;;28.50;77.60;;;;;;5070278;28;20043;-65
2022/05/19 10:34:27;;;;;;;2.83;1.10;;;29.10;75.90;;;;;;5069528;28;20035;-64
2022/05/19 10:37:05;;;;;;;7.72;1.50;;;29.40;74.10;;;;;;5070933;28;20029;-63
2022/05/19 10:40:05;;;;;;;4.20;1.38;;;29.30;75.00;;;;;;5070580;28;20105;-64
2022/05/19 10:42:49;;;;;;;3.38;1.50;;;29.20;74.90;;;;;;5069855;28;20478;-67
2022/05/19 10:45:40;;;;;;;3.40;2.08;;;29.10;75.60;;;;;;5070398;28;20166;-63
2022/05/19 10:48:30;;;;;;;5.53;2.03;;;29.20;74.70;;;;;;5069381;28;20028;-64
2022/05/19 10:51:22;;;;;;;3.00;1.57;;;29.60;75.00;;;;;;5069133;28;20078;-65
2022/05/19 10:53:57;;;;;;;3.05;1.30;;;29.80;73.50;;;;;;5071085;28;20035;-65
2022/05/19 10:56:48;;;;;;;4.53;1.48;;;30.10;74.40;;;;;;5068715;28;20037;-63
2022/05/19 10:59:33;;;;;;;3.40;1.80;;;30.30;74.70;;;;;;5068417;28;20152;-62
2022/05/19 11:02:07;;;;;;;6.85;1.52;;;30.10;73.30;;;;;;5069217;28;20028;-64
2022/05/19 11:04:48;;;;;;;4.68;1.50;;;29.70;74.70;;;;;;5068943;28;20188;-63
2022/05/19 11:07:17;;;;;;;2.60;1.58;;;29.30;75.10;;;;;;5069021;28;20025;-67
2022/05/19 11:10:07;;;;;;;6.05;2.70;;;29.40;74.30;;;;;;5070627;28;20029;-64
2022/05/19 11:12:54;;;;;;;3.42;1.50;;;29.20;75.40;;;;;;5069803;28;20386;-64
2022/05/19 11:15:34;;;;;;;5.28;2.25;;;28.70;76.20;;;;;;5068104;28;20036;-64
2022/05/19 11:18:12;;;;;;;3.22;1.67;;;28.40;76.50;;;;;;5069114;28;20036;-64
2022/05/19 11:21:10;;;;;;;3.35;1.60;;;28.00;77.80;;;;;;5069910;28;20021;-63
2022/05/19 11:23:54;;;;;;;5.97;1.75;;;28.30;77.20;;;;;;5070310;28;20442;-67
2022/05/19 11:26:23;;;;;;;14.95;3.10;;;28.50;76.90;;;;;;5068479;28;20020;-67
2022/05/19 11:29:13;;;;;;;5.32;1.95;;;28.40;76.90;;;;;;5070531;28;20036;-63
2022/05/19 11:31:46;;;;;;;6.40;1.90;;;28.80;77.50;;;;;;5068393;28;20033;-64
2022/05/19 11:34:39;;;;;;;2.67;1.70;;;28.80;76.60;;;;;;5070093;28;20093;-64
2022/05/19 11:37:11;;;;;;;3.92;2.00;;;28.90;76.80;;;;;;5068807;28;20033;-65
2022/05/19 11:40:08;;;;;;;2.88;1.95;;;28.80;77.50;;;;;;5068448;28;20032;-63
2022/05/19 11:42:48;;;;;;;2.08;1.85;;;28.90;76.20;;;;;;5073790;28;20127;-64
2022/05/19 11:45:22;;;;;;;;;;;29.00;75.90;;;;;;5073534;28;20119;-64
2022/05/19 11:56:32;;;;;;;5.65;2.42;;;29.10;77.60;;;;;;5073775;28;20035;-65
2022/05/19 11:58:58;;;;;;;2.38;2.00;;;29.10;77.10;;;;;;5074037;28;20021;-65
2022/05/19 12:01:32;;;;;;;2.63;2.00;;;28.90;77.70;;;;;;5071884;28;20094;-65
2022/05/19 12:04:08;;;;;;;5.05;2.20;;;29.20;77.80;;;;;;5072277;28;20029;-65
2022/05/19 12:06:53;;;;;;;4.07;2.10;;;29.50;76.70;;;;;;5073360;28;20029;-64
2022/05/19 12:09:41;;;;;;;2.20;1.88;;;29.80;77.10;;;;;;5073328;28;20068;-64
2022/05/19 12:12:24;;;;;;;7.00;2.35;;;29.70;76.70;;;;;;5073970;28;20142;-64
2022/05/19 12:15:23;;;;;;;2.53;1.60;;;29.70;76.40;;;;;;5072680;28;20036;-64
2022/05/19 12:18:08;;;;;;;11.73;2.63;;;29.60;77.20;;;;;;5072503;28;20037;-64
2022/05/19 12:21:13;;;;;;;17.70;4.53;;;29.30;78.20;;;;;;5072105;28;20071;-65
2022/05/19 12:23:42;;;;;;;12.10;2.30;;;29.70;77.90;;;;;;5073324;28;20048;-65
2022/05/19 12:26:11;;;;;;;7.18;2.17;;;30.20;77.30;;;;;;5073781;28;20410;-64
2022/05/19 12:28:45;;;;;;;7.30;2.10;;;30.10;77.30;;;;;;5071826;28;20028;-65
2022/05/19 12:34:07;;;;;;;3.20;1.90;;;30.00;76.10;;;;;;5074135;28;20035;-64
2022/05/19 12:36:50;;;;;;;3.72;1.83;;;30.30;76.60;;;;;;5073434;28;20039;-66
2022/05/19 12:39:16;;;;;;;9.77;2.05;;;30.10;75.60;;;;;;5072807;28;20036;-64
2022/05/19 12:42:34;;;;;;;7.68;2.38;;;30.00;76.00;;;;;;5071985;28;20150;-64
2022/05/19 12:45:19;;;;;;;5.00;2.35;;;30.30;76.90;;;;;;5029315;28;20129;-64
2022/05/19 12:48:11;;;;;;;5.93;2.65;;;30.50;76.00;;;;;;5074527;28;20432;-65
2022/05/19 12:50:51;;;;;;;3.92;1.75;;;30.50;76.50;;;;;;5071087;28;20052;-64
2022/05/19 12:53:23;;;;;;;3.73;2.03;;;30.50;75.00;;;;;;5072672;28;20029;-65
2022/05/19 12:55:54;;;;;;;8.45;2.35;;;30.80;74.90;;;;;;5073321;28;20283;-64
2022/05/19 12:58:35;;;;;;;5.75;2.10;;;30.80;74.60;;;;;;5072640;28;20039;-72
2022/05/19 13:01:23;;;;;;;5.15;2.05;;;30.90;75.30;;;;;;5073829;28;20023;-63
2022/05/19 13:04:05;;;;;;;2.67;1.95;;;31.20;74.90;;;;;;5073268;28;20021;-64
2022/05/19 13:06:33;;;;;;;7.72;2.05;;;31.20;75.10;;;;;;5070944;28;20032;-64
2022/05/19 13:09:03;;;;;;;8.82;2.72;;;31.40;75.30;;;;;;5071355;28;20111;-63
2022/05/19 13:11:32;;;;;;;8.63;1.90;;;31.40;74.30;;;;;;5070435;28;20078;-66
2022/05/19 13:14:07;;;;;;;5.63;2.35;;;31.60;74.90;;;;;;5072433;28;20119;-64
2022/05/19 13:16:38;;;;;;;7.30;2.67;;;31.20;75.70;;;;;;5072029;28;20048;-65
2022/05/19 13:19:12;;;;;;;11.50;2.85;;;31.20;76.20;;;;;;5072779;28;20040;-65
2022/05/19 13:21:57;;;;;;;10.02;2.38;;;31.60;76.30;;;;;;5070833;28;20028;-64
2022/05/19 13:24:24;;;;;;;4.45;2.15;;;31.50;75.60;;;;;;5071828;28;20433;-66
2022/05/19 13:32:33;;;;;;;3.97;2.65;;;31.30;76.60;;;;;;5071853;28;20051;-66
2022/05/19 13:35:02;;;;;;;5.35;2.60;;;31.30;77.50;;;;;;5072402;28;20024;-65
2022/05/19 13:37:33;;;;;;;5.75;3.05;;;31.40;76.80;;;;;;5071405;28;20025;-66
2022/05/19 13:40:14;;;;;;;9.88;3.35;;;31.30;76.90;;;;;;5070625;28;20128;-64
2022/05/19 13:42:45;;;;;;;6.22;2.28;;;31.20;77.10;;;;;;5069771;28;20048;-63